Wingate, Maryland
Current Conditions -  °F | °C
As of 11:59 AM on Wednesday 26 Nov 2014 (Local Time) from KNHK Reporting Station
Light Rain Light Rain  
Wind Chill: 32°   Ceiling: 900
Heat Index: 41°   Visibility: 4mi
Dew Point: 38°   Wind: 18mph
Humidity: 89%   Direction: 360°N
Pressure: 29.94"   Gusts: 29mph
Location:  38.28°N, 76.08°W
Report Text: KNHK 261659Z 36016G25KT 4SM -RA BR BKN009 OVC014 05/03 A2994 RMK AO2 VIS 1 3/4 RY24 P0001 T00500033
Loading
Personal Weather Stations






























Interactive Weather Map New forecast layout! Learn more

10-Day Weather Forecast

Advertisements
Track Severe Weather on mobile